sensor_id;sensor_type;location;lat;lon;timestamp;temperature;humidity
32394;DHT22;18853;45.426;9.206;2023-07-31T00:00:54;31.80;51.50
32394;DHT22;18853;45.426;9.206;2023-07-31T00:03:20;31.80;51.60
32394;DHT22;18853;45.426;9.206;2023-07-31T00:05:46;31.80;51.70
32394;DHT22;18853;45.426;9.206;2023-07-31T00:08:11;31.80;51.70
32394;DHT22;18853;45.426;9.206;2023-07-31T00:10:37;31.70;51.70
32394;DHT22;18853;45.426;9.206;2023-07-31T00:13:02;31.70;51.80
32394;DHT22;18853;45.426;9.206;2023-07-31T00:15:28;31.70;51.90
32394;DHT22;18853;45.426;9.206;2023-07-31T00:17:54;31.60;51.90
32394;DHT22;18853;45.426;9.206;2023-07-31T00:20:20;31.60;52.00
32394;DHT22;18853;45.426;9.206;2023-07-31T00:22:46;31.60;52.10
32394;DHT22;18853;45.426;9.206;2023-07-31T00:25:12;31.60;52.20
32394;DHT22;18853;45.426;9.206;2023-07-31T00:27:37;31.60;52.20
32394;DHT22;18853;45.426;9.206;2023-07-31T00:30:03;31.50;52.20
32394;DHT22;18853;45.426;9.206;2023-07-31T00:32:29;31.50;52.10
32394;DHT22;18853;45.426;9.206;2023-07-31T00:34:55;31.50;52.10
32394;DHT22;18853;45.426;9.206;2023-07-31T00:37:21;31.50;52.10
32394;DHT22;18853;45.426;9.206;2023-07-31T00:39:46;31.40;52.10
32394;DHT22;18853;45.426;9.206;2023-07-31T00:42:12;31.40;51.90
32394;DHT22;18853;45.426;9.206;2023-07-31T00:44:38;31.40;51.80
32394;DHT22;18853;45.426;9.206;2023-07-31T00:47:03;31.30;51.70
32394;DHT22;18853;45.426;9.206;2023-07-31T00:49:29;31.30;51.80
32394;DHT22;18853;45.426;9.206;2023-07-31T00:51:55;31.40;51.90
32394;DHT22;18853;45.426;9.206;2023-07-31T00:54:23;31.30;51.80
32394;DHT22;18853;45.426;9.206;2023-07-31T00:56:50;31.30;52.30
32394;DHT22;18853;45.426;9.206;2023-07-31T00:59:18;31.30;51.60
32394;DHT22;18853;45.426;9.206;2023-07-31T01:01:44;31.20;51.60
32394;DHT22;18853;45.426;9.206;2023-07-31T01:04:11;31.20;51.60
32394;DHT22;18853;45.426;9.206;2023-07-31T01:07:05;31.20;51.70
32394;DHT22;18853;45.426;9.206;2023-07-31T01:09:47;31.20;51.70
32394;DHT22;18853;45.426;9.206;2023-07-31T01:12:15;31.10;51.80
32394;DHT22;18853;45.426;9.206;2023-07-31T01:15:11;31.10;52.00
32394;DHT22;18853;45.426;9.206;2023-07-31T01:17:38;31.10;52.00
32394;DHT22;18853;45.426;9.206;2023-07-31T01:20:08;31.00;52.30
32394;DHT22;18853;45.426;9.206;2023-07-31T01:25:45;31.10;52.30
32394;DHT22;18853;45.426;9.206;2023-07-31T01:28:18;31.00;52.30
32394;DHT22;18853;45.426;9.206;2023-07-31T01:30:47;31.00;52.50
32394;DHT22;18853;45.426;9.206;2023-07-31T01:33:17;31.00;52.50
32394;DHT22;18853;45.426;9.206;2023-07-31T01:35:45;31.00;52.60
32394;DHT22;18853;45.426;9.206;2023-07-31T01:38:11;31.00;52.60
32394;DHT22;18853;45.426;9.206;2023-07-31T01:40:41;31.00;52.60
32394;DHT22;18853;45.426;9.206;2023-07-31T01:43:07;30.90;52.60
32394;DHT22;18853;45.426;9.206;2023-07-31T01:45:33;31.00;52.80
32394;DHT22;18853;45.426;9.206;2023-07-31T01:47:58;30.90;52.70
32394;DHT22;18853;45.426;9.206;2023-07-31T01:50:24;30.90;52.70
32394;DHT22;18853;45.426;9.206;2023-07-31T01:52:50;30.80;52.70
32394;DHT22;18853;45.426;9.206;2023-07-31T01:55:15;30.90;52.80
32394;DHT22;18853;45.426;9.206;2023-07-31T01:57:41;30.80;52.80
32394;DHT22;18853;45.426;9.206;2023-07-31T02:00:07;30.80;52.90
32394;DHT22;18853;45.426;9.206;2023-07-31T02:02:33;30.80;52.90
32394;DHT22;18853;45.426;9.206;2023-07-31T02:05:00;30.80;52.90
32394;DHT22;18853;45.426;9.206;2023-07-31T02:07:25;30.70;52.80
32394;DHT22;18853;45.426;9.206;2023-07-31T02:09:51;30.70;52.90
32394;DHT22;18853;45.426;9.206;2023-07-31T02:12:18;30.70;53.00
32394;DHT22;18853;45.426;9.206;2023-07-31T02:14:43;30.70;53.00
32394;DHT22;18853;45.426;9.206;2023-07-31T02:17:09;30.70;53.10
32394;DHT22;18853;45.426;9.206;2023-07-31T02:19:35;30.60;53.00
32394;DHT22;18853;45.426;9.206;2023-07-31T02:22:00;30.60;53.10
32394;DHT22;18853;45.426;9.206;2023-07-31T02:24:26;30.60;53.00
32394;DHT22;18853;45.426;9.206;2023-07-31T02:26:52;30.50;53.00
32394;DHT22;18853;45.426;9.206;2023-07-31T02:29:17;30.50;53.10
32394;DHT22;18853;45.426;9.206;2023-07-31T02:31:43;30.50;53.20
32394;DHT22;18853;45.426;9.206;2023-07-31T02:34:08;30.50;53.20
32394;DHT22;18853;45.426;9.206;2023-07-31T02:36:34;30.50;53.10
32394;DHT22;18853;45.426;9.206;2023-07-31T02:39:00;30.50;53.20
32394;DHT22;18853;45.426;9.206;2023-07-31T02:41:25;30.50;53.20
32394;DHT22;18853;45.426;9.206;2023-07-31T02:43:51;30.40;53.20
32394;DHT22;18853;45.426;9.206;2023-07-31T02:46:17;30.40;53.80
32394;DHT22;18853;45.426;9.206;2023-07-31T02:48:43;30.40;53.10
32394;DHT22;18853;45.426;9.206;2023-07-31T02:51:08;30.40;53.80
32394;DHT22;18853;45.426;9.206;2023-07-31T02:53:34;30.40;53.30
32394;DHT22;18853;45.426;9.206;2023-07-31T02:56:00;30.30;53.30
32394;DHT22;18853;45.426;9.206;2023-07-31T02:58:25;30.30;53.30
32394;DHT22;18853;45.426;9.206;2023-07-31T03:00:51;30.30;53.40
32394;DHT22;18853;45.426;9.206;2023-07-31T03:03:16;30.30;53.40
32394;DHT22;18853;45.426;9.206;2023-07-31T03:05:42;30.30;54.10
32394;DHT22;18853;45.426;9.206;2023-07-31T03:08:08;30.30;53.60
32394;DHT22;18853;45.426;9.206;2023-07-31T03:10:33;30.30;53.60
32394;DHT22;18853;45.426;9.206;2023-07-31T03:12:59;30.20;53.60
32394;DHT22;18853;45.426;9.206;2023-07-31T03:15:26;30.20;53.70
32394;DHT22;18853;45.426;9.206;2023-07-31T03:17:51;30.20;53.70
32394;DHT22;18853;45.426;9.206;2023-07-31T03:20:17;30.20;53.80
32394;DHT22;18853;45.426;9.206;2023-07-31T03:22:43;30.20;53.80
32394;DHT22;18853;45.426;9.206;2023-07-31T03:25:09;30.20;53.80
32394;DHT22;18853;45.426;9.206;2023-07-31T03:27:35;30.20;53.80
32394;DHT22;18853;45.426;9.206;2023-07-31T03:30:02;30.10;53.80
32394;DHT22;18853;45.426;9.206;2023-07-31T03:32:28;30.10;53.90
32394;DHT22;18853;45.426;9.206;2023-07-31T03:34:54;30.10;53.90
32394;DHT22;18853;45.426;9.206;2023-07-31T03:37:19;30.10;53.90
32394;DHT22;18853;45.426;9.206;2023-07-31T03:39:45;30.10;53.90
32394;DHT22;18853;45.426;9.206;2023-07-31T03:42:10;30.00;53.90
32394;DHT22;18853;45.426;9.206;2023-07-31T03:44:36;30.00;53.80
32394;DHT22;18853;45.426;9.206;2023-07-31T03:47:02;30.00;54.50
32394;DHT22;18853;45.426;9.206;2023-07-31T03:49:28;30.00;53.90
32394;DHT22;18853;45.426;9.206;2023-07-31T03:51:54;30.00;54.00
32394;DHT22;18853;45.426;9.206;2023-07-31T03:54:19;30.00;54.00
32394;DHT22;18853;45.426;9.206;2023-07-31T03:56:45;29.90;53.90
32394;DHT22;18853;45.426;9.206;2023-07-31T03:59:11;30.00;54.00
32394;DHT22;18853;45.426;9.206;2023-07-31T04:01:36;29.90;54.00
32394;DHT22;18853;45.426;9.206;2023-07-31T04:04:02;29.90;54.10
32394;DHT22;18853;45.426;9.206;2023-07-31T04:06:28;29.80;54.20
32394;DHT22;18853;45.426;9.206;2023-07-31T04:08:53;29.80;54.20
32394;DHT22;18853;45.426;9.206;2023-07-31T04:11:20;29.80;54.30
32394;DHT22;18853;45.426;9.206;2023-07-31T04:13:45;29.80;54.30
32394;DHT22;18853;45.426;9.206;2023-07-31T04:16:11;29.80;54.30
32394;DHT22;18853;45.426;9.206;2023-07-31T04:18:37;29.80;54.30
32394;DHT22;18853;45.426;9.206;2023-07-31T04:21:03;29.80;54.40
32394;DHT22;18853;45.426;9.206;2023-07-31T04:23:29;29.80;54.40
32394;DHT22;18853;45.426;9.206;2023-07-31T04:25:55;29.80;54.40
32394;DHT22;18853;45.426;9.206;2023-07-31T04:28:20;29.80;54.40
32394;DHT22;18853;45.426;9.206;2023-07-31T04:30:46;29.80;54.50
32394;DHT22;18853;45.426;9.206;2023-07-31T04:33:12;29.70;54.40
32394;DHT22;18853;45.426;9.206;2023-07-31T04:35:38;29.80;54.60
32394;DHT22;18853;45.426;9.206;2023-07-31T04:38:04;29.70;54.50
32394;DHT22;18853;45.426;9.206;2023-07-31T04:40:29;29.80;54.60
32394;DHT22;18853;45.426;9.206;2023-07-31T04:42:55;29.70;54.50
32394;DHT22;18853;45.426;9.206;2023-07-31T04:45:20;29.80;54.70
32394;DHT22;18853;45.426;9.206;2023-07-31T04:47:46;29.80;54.70
32394;DHT22;18853;45.426;9.206;2023-07-31T04:50:12;29.70;54.70
32394;DHT22;18853;45.426;9.206;2023-07-31T04:52:37;29.70;54.70
32394;DHT22;18853;45.426;9.206;2023-07-31T04:55:03;29.70;54.70
32394;DHT22;18853;45.426;9.206;2023-07-31T04:57:29;29.70;54.70
32394;DHT22;18853;45.426;9.206;2023-07-31T04:59:55;29.70;54.70
32394;DHT22;18853;45.426;9.206;2023-07-31T05:02:20;29.70;54.80
32394;DHT22;18853;45.426;9.206;2023-07-31T05:04:46;29.70;54.80
32394;DHT22;18853;45.426;9.206;2023-07-31T05:07:12;29.70;54.90
32394;DHT22;18853;45.426;9.206;2023-07-31T05:09:37;29.70;54.90
32394;DHT22;18853;45.426;9.206;2023-07-31T05:12:05;29.70;55.00
32394;DHT22;18853;45.426;9.206;2023-07-31T05:14:31;29.80;55.00
32394;DHT22;18853;45.426;9.206;2023-07-31T05:16:57;29.70;55.00
32394;DHT22;18853;45.426;9.206;2023-07-31T05:19:22;29.80;55.00
32394;DHT22;18853;45.426;9.206;2023-07-31T05:21:48;29.70;55.00
32394;DHT22;18853;45.426;9.206;2023-07-31T05:24:14;29.80;55.00
32394;DHT22;18853;45.426;9.206;2023-07-31T05:26:39;29.80;55.00
32394;DHT22;18853;45.426;9.206;2023-07-31T05:29:05;29.80;55.10
32394;DHT22;18853;45.426;9.206;2023-07-31T05:31:30;29.80;55.10
32394;DHT22;18853;45.426;9.206;2023-07-31T05:33:58;29.80;55.00
32394;DHT22;18853;45.426;9.206;2023-07-31T05:36:23;29.80;55.00
32394;DHT22;18853;45.426;9.206;2023-07-31T05:38:49;29.80;54.90
32394;DHT22;18853;45.426;9.206;2023-07-31T05:41:15;29.90;54.90
32394;DHT22;18853;45.426;9.206;2023-07-31T05:43:41;29.90;54.80
32394;DHT22;18853;45.426;9.206;2023-07-31T05:46:08;29.90;54.70
32394;DHT22;18853;45.426;9.206;2023-07-31T05:48:35;29.90;54.80
32394;DHT22;18853;45.426;9.206;2023-07-31T05:51:00;29.90;55.00
32394;DHT22;18853;45.426;9.206;2023-07-31T05:53:26;29.90;54.80
32394;DHT22;18853;45.426;9.206;2023-07-31T05:55:52;30.00;54.70
32394;DHT22;18853;45.426;9.206;2023-07-31T05:58:17;30.00;54.80
32394;DHT22;18853;45.426;9.206;2023-07-31T06:00:43;30.00;54.90
32394;DHT22;18853;45.426;9.206;2023-07-31T06:03:09;30.00;54.90
32394;DHT22;18853;45.426;9.206;2023-07-31T06:05:34;30.00;54.70
32394;DHT22;18853;45.426;9.206;2023-07-31T06:08:00;30.10;54.70
32394;DHT22;18853;45.426;9.206;2023-07-31T06:10:26;30.10;54.80
32394;DHT22;18853;45.426;9.206;2023-07-31T06:12:52;30.10;54.40
32394;DHT22;18853;45.426;9.206;2023-07-31T06:15:18;30.10;54.30
32394;DHT22;18853;45.426;9.206;2023-07-31T06:17:45;30.10;54.10
32394;DHT22;18853;45.426;9.206;2023-07-31T06:20:10;30.10;54.00
32394;DHT22;18853;45.426;9.206;2023-07-31T06:22:36;30.10;54.00
32394;DHT22;18853;45.426;9.206;2023-07-31T06:25:02;30.10;54.00
32394;DHT22;18853;45.426;9.206;2023-07-31T06:27:28;30.10;53.80
32394;DHT22;18853;45.426;9.206;2023-07-31T06:29:54;30.10;53.70
32394;DHT22;18853;45.426;9.206;2023-07-31T06:32:19;30.10;53.70
32394;DHT22;18853;45.426;9.206;2023-07-31T06:34:45;30.10;53.60
32394;DHT22;18853;45.426;9.206;2023-07-31T06:37:11;30.10;53.60
32394;DHT22;18853;45.426;9.206;2023-07-31T06:39:36;30.10;53.60
32394;DHT22;18853;45.426;9.206;2023-07-31T06:42:03;30.20;53.50
32394;DHT22;18853;45.426;9.206;2023-07-31T06:44:29;30.10;53.50
32394;DHT22;18853;45.426;9.206;2023-07-31T06:46:54;30.20;53.50
32394;DHT22;18853;45.426;9.206;2023-07-31T06:49:20;30.20;53.30
32394;DHT22;18853;45.426;9.206;2023-07-31T06:51:46;30.20;53.30
32394;DHT22;18853;45.426;9.206;2023-07-31T06:54:11;30.30;53.50
32394;DHT22;18853;45.426;9.206;2023-07-31T06:56:37;30.30;53.40
32394;DHT22;18853;45.426;9.206;2023-07-31T06:59:03;30.20;53.00
32394;DHT22;18853;45.426;9.206;2023-07-31T07:01:29;30.30;53.10
32394;DHT22;18853;45.426;9.206;2023-07-31T07:03:54;30.30;53.30
32394;DHT22;18853;45.426;9.206;2023-07-31T07:06:21;30.30;53.20
32394;DHT22;18853;45.426;9.206;2023-07-31T07:08:48;30.30;53.10
32394;DHT22;18853;45.426;9.206;2023-07-31T07:11:14;30.30;52.70
32394;DHT22;18853;45.426;9.206;2023-07-31T07:13:40;30.30;52.50
32394;DHT22;18853;45.426;9.206;2023-07-31T07:16:06;30.30;52.10
32394;DHT22;18853;45.426;9.206;2023-07-31T07:18:31;30.30;52.10
32394;DHT22;18853;45.426;9.206;2023-07-31T07:20:57;30.30;51.90
32394;DHT22;18853;45.426;9.206;2023-07-31T07:23:24;30.40;52.00
32394;DHT22;18853;45.426;9.206;2023-07-31T07:25:50;30.40;51.70
32394;DHT22;18853;45.426;9.206;2023-07-31T07:28:16;30.40;51.40
32394;DHT22;18853;45.426;9.206;2023-07-31T07:30:42;30.40;51.30
32394;DHT22;18853;45.426;9.206;2023-07-31T07:33:08;30.40;51.30
32394;DHT22;18853;45.426;9.206;2023-07-31T07:35:34;30.40;51.20
32394;DHT22;18853;45.426;9.206;2023-07-31T07:38:01;30.40;51.10
32394;DHT22;18853;45.426;9.206;2023-07-31T07:40:27;30.40;51.10
32394;DHT22;18853;45.426;9.206;2023-07-31T07:42:52;30.40;51.20
32394;DHT22;18853;45.426;9.206;2023-07-31T07:45:18;30.40;51.30
32394;DHT22;18853;45.426;9.206;2023-07-31T07:47:43;30.40;51.30
32394;DHT22;18853;45.426;9.206;2023-07-31T07:50:09;30.50;51.40
32394;DHT22;18853;45.426;9.206;2023-07-31T07:52:35;30.50;51.20
32394;DHT22;18853;45.426;9.206;2023-07-31T07:55:01;30.40;51.00
32394;DHT22;18853;45.426;9.206;2023-07-31T07:57:27;30.40;51.00
32394;DHT22;18853;45.426;9.206;2023-07-31T07:59:52;30.40;51.00
32394;DHT22;18853;45.426;9.206;2023-07-31T08:02:18;30.30;51.00
32394;DHT22;18853;45.426;9.206;2023-07-31T08:04:44;30.30;50.90
32394;DHT22;18853;45.426;9.206;2023-07-31T08:07:12;30.40;51.00
32394;DHT22;18853;45.426;9.206;2023-07-31T08:09:38;30.40;51.30
32394;DHT22;18853;45.426;9.206;2023-07-31T08:12:05;30.40;51.00
32394;DHT22;18853;45.426;9.206;2023-07-31T08:14:31;30.50;51.00
32394;DHT22;18853;45.426;9.206;2023-07-31T08:16:56;30.50;51.00
32394;DHT22;18853;45.426;9.206;2023-07-31T08:19:22;30.60;51.00
32394;DHT22;18853;45.426;9.206;2023-07-31T08:21:48;30.60;50.60
32394;DHT22;18853;45.426;9.206;2023-07-31T08:24:13;30.70;50.60
32394;DHT22;18853;45.426;9.206;2023-07-31T08:26:39;30.70;50.50
32394;DHT22;18853;45.426;9.206;2023-07-31T08:29:05;30.70;50.30
32394;DHT22;18853;45.426;9.206;2023-07-31T08:31:31;30.70;50.30
32394;DHT22;18853;45.426;9.206;2023-07-31T08:33:57;30.70;50.10
32394;DHT22;18853;45.426;9.206;2023-07-31T08:36:22;30.70;50.10
32394;DHT22;18853;45.426;9.206;2023-07-31T08:38:48;30.70;50.30
32394;DHT22;18853;45.426;9.206;2023-07-31T08:41:15;30.80;50.80
32394;DHT22;18853;45.426;9.206;2023-07-31T08:43:45;30.80;50.70
32394;DHT22;18853;45.426;9.206;2023-07-31T08:46:11;30.80;50.80
32394;DHT22;18853;45.426;9.206;2023-07-31T08:48:37;30.80;50.50
32394;DHT22;18853;45.426;9.206;2023-07-31T08:51:04;30.80;50.70
32394;DHT22;18853;45.426;9.206;2023-07-31T08:53:29;30.80;50.90
32394;DHT22;18853;45.426;9.206;2023-07-31T08:55:56;30.70;50.90
32394;DHT22;18853;45.426;9.206;2023-07-31T08:58:24;30.80;51.10
32394;DHT22;18853;45.426;9.206;2023-07-31T09:00:51;30.80;51.30
32394;DHT22;18853;45.426;9.206;2023-07-31T09:03:18;30.80;51.00
32394;DHT22;18853;45.426;9.206;2023-07-31T09:05:46;30.80;50.60
32394;DHT22;18853;45.426;9.206;2023-07-31T09:08:13;30.80;50.90
32394;DHT22;18853;45.426;9.206;2023-07-31T09:10:43;30.80;51.10
32394;DHT22;18853;45.426;9.206;2023-07-31T09:13:11;30.90;50.90
32394;DHT22;18853;45.426;9.206;2023-07-31T09:15:37;30.80;50.70
32394;DHT22;18853;45.426;9.206;2023-07-31T09:18:05;30.80;50.90
32394;DHT22;18853;45.426;9.206;2023-07-31T09:20:31;30.80;51.00
32394;DHT22;18853;45.426;9.206;2023-07-31T09:23:08;30.80;51.10
32394;DHT22;18853;45.426;9.206;2023-07-31T09:25:34;30.80;51.20
32394;DHT22;18853;45.426;9.206;2023-07-31T09:28:06;30.80;51.10
32394;DHT22;18853;45.426;9.206;2023-07-31T09:30:53;30.80;51.20
32394;DHT22;18853;45.426;9.206;2023-07-31T09:33:19;30.80;51.20
32394;DHT22;18853;45.426;9.206;2023-07-31T09:35:45;30.80;51.40
32394;DHT22;18853;45.426;9.206;2023-07-31T09:38:14;30.90;51.60
32394;DHT22;18853;45.426;9.206;2023-07-31T09:40:42;30.90;51.10
32394;DHT22;18853;45.426;9.206;2023-07-31T09:43:10;31.00;51.40
32394;DHT22;18853;45.426;9.206;2023-07-31T09:45:41;31.00;51.40
32394;DHT22;18853;45.426;9.206;2023-07-31T09:48:08;31.00;51.00
32394;DHT22;18853;45.426;9.206;2023-07-31T09:50:40;31.00;51.20
32394;DHT22;18853;45.426;9.206;2023-07-31T09:53:07;31.00;51.20
32394;DHT22;18853;45.426;9.206;2023-07-31T09:55:34;31.00;51.30
32394;DHT22;18853;45.426;9.206;2023-07-31T09:58:11;31.10;51.10
32394;DHT22;18853;45.426;9.206;2023-07-31T10:00:37;31.10;51.10
32394;DHT22;18853;45.426;9.206;2023-07-31T10:03:09;31.10;51.30
32394;DHT22;18853;45.426;9.206;2023-07-31T10:05:56;31.20;51.30
32394;DHT22;18853;45.426;9.206;2023-07-31T10:08:27;31.30;51.60
32394;DHT22;18853;45.426;9.206;2023-07-31T10:10:54;31.20;51.20
32394;DHT22;18853;45.426;9.206;2023-07-31T10:13:24;31.30;51.20
32394;DHT22;18853;45.426;9.206;2023-07-31T10:15:50;31.30;51.30
32394;DHT22;18853;45.426;9.206;2023-07-31T10:18:18;31.30;51.20
32394;DHT22;18853;45.426;9.206;2023-07-31T10:20:45;31.40;51.10
32394;DHT22;18853;45.426;9.206;2023-07-31T10:23:11;31.40;51.30
32394;DHT22;18853;45.426;9.206;2023-07-31T10:25:37;31.50;51.20
32394;DHT22;18853;45.426;9.206;2023-07-31T10:28:04;31.50;50.60
32394;DHT22;18853;45.426;9.206;2023-07-31T10:30:31;31.50;50.80
32394;DHT22;18853;45.426;9.206;2023-07-31T10:32:58;31.60;50.70
32394;DHT22;18853;45.426;9.206;2023-07-31T10:35:24;31.60;50.40
32394;DHT22;18853;45.426;9.206;2023-07-31T10:37:50;31.70;50.90
32394;DHT22;18853;45.426;9.206;2023-07-31T10:40:19;31.70;51.10
32394;DHT22;18853;45.426;9.206;2023-07-31T10:42:49;31.70;51.40
32394;DHT22;18853;45.426;9.206;2023-07-31T10:48:01;31.70;50.20
32394;DHT22;18853;45.426;9.206;2023-07-31T10:50:28;31.70;50.80
32394;DHT22;18853;45.426;9.206;2023-07-31T10:52:56;31.70;51.10
32394;DHT22;18853;45.426;9.206;2023-07-31T10:55:28;31.70;50.70
32394;DHT22;18853;45.426;9.206;2023-07-31T10:57:57;31.70;50.30
32394;DHT22;18853;45.426;9.206;2023-07-31T11:00:28;31.70;50.60
32394;DHT22;18853;45.426;9.206;2023-07-31T11:03:04;31.70;50.50
32394;DHT22;18853;45.426;9.206;2023-07-31T11:05:43;31.70;50.60
32394;DHT22;18853;45.426;9.206;2023-07-31T11:10:38;31.80;50.60
32394;DHT22;18853;45.426;9.206;2023-07-31T11:13:06;31.90;50.60
32394;DHT22;18853;45.426;9.206;2023-07-31T11:15:32;32.00;50.70
32394;DHT22;18853;45.426;9.206;2023-07-31T11:17:57;32.10;50.80
32394;DHT22;18853;45.426;9.206;2023-07-31T11:20:25;32.10;50.90
32394;DHT22;18853;45.426;9.206;2023-07-31T11:22:50;32.20;51.10
32394;DHT22;18853;45.426;9.206;2023-07-31T11:25:16;32.20;51.30
32394;DHT22;18853;45.426;9.206;2023-07-31T11:27:43;32.30;51.10
32394;DHT22;18853;45.426;9.206;2023-07-31T11:30:09;32.30;49.90
32394;DHT22;18853;45.426;9.206;2023-07-31T11:32:38;32.30;49.90
32394;DHT22;18853;45.426;9.206;2023-07-31T11:35:04;32.20;49.70
32394;DHT22;18853;45.426;9.206;2023-07-31T11:40:22;32.30;50.70
32394;DHT22;18853;45.426;9.206;2023-07-31T11:42:47;32.40;51.00
32394;DHT22;18853;45.426;9.206;2023-07-31T11:45:13;32.40;50.40
32394;DHT22;18853;45.426;9.206;2023-07-31T11:47:39;32.40;50.20
32394;DHT22;18853;45.426;9.206;2023-07-31T11:50:07;32.50;49.80
32394;DHT22;18853;45.426;9.206;2023-07-31T11:52:42;32.60;49.30
32394;DHT22;18853;45.426;9.206;2023-07-31T11:55:09;32.70;49.00
32394;DHT22;18853;45.426;9.206;2023-07-31T11:57:39;32.80;49.40
32394;DHT22;18853;45.426;9.206;2023-07-31T12:00:07;32.90;48.80
32394;DHT22;18853;45.426;9.206;2023-07-31T12:02:35;32.90;47.80
32394;DHT22;18853;45.426;9.206;2023-07-31T12:05:01;32.90;48.70
32394;DHT22;18853;45.426;9.206;2023-07-31T12:07:27;32.90;48.00
32394;DHT22;18853;45.426;9.206;2023-07-31T12:09:56;33.00;48.10
32394;DHT22;18853;45.426;9.206;2023-07-31T12:12:24;33.10;48.90
32394;DHT22;18853;45.426;9.206;2023-07-31T12:14:50;33.20;48.60
32394;DHT22;18853;45.426;9.206;2023-07-31T12:17:18;33.30;48.20
32394;DHT22;18853;45.426;9.206;2023-07-31T12:19:45;33.40;47.60
32394;DHT22;18853;45.426;9.206;2023-07-31T12:22:15;33.50;47.50
32394;DHT22;18853;45.426;9.206;2023-07-31T12:24:44;33.50;47.20
32394;DHT22;18853;45.426;9.206;2023-07-31T12:27:11;33.50;47.00
32394;DHT22;18853;45.426;9.206;2023-07-31T12:29:38;33.50;46.70
32394;DHT22;18853;45.426;9.206;2023-07-31T12:32:17;33.60;46.50
32394;DHT22;18853;45.426;9.206;2023-07-31T12:34:43;33.60;45.80
32394;DHT22;18853;45.426;9.206;2023-07-31T12:37:09;33.50;46.10
32394;DHT22;18853;45.426;9.206;2023-07-31T12:39:34;33.50;46.10
32394;DHT22;18853;45.426;9.206;2023-07-31T12:42:00;33.60;46.50
32394;DHT22;18853;45.426;9.206;2023-07-31T12:44:26;33.70;46.80
32394;DHT22;18853;45.426;9.206;2023-07-31T12:46:51;33.80;47.10
32394;DHT22;18853;45.426;9.206;2023-07-31T12:49:17;33.80;46.90
32394;DHT22;18853;45.426;9.206;2023-07-31T12:51:43;33.90;46.10
32394;DHT22;18853;45.426;9.206;2023-07-31T12:54:08;34.00;46.40
32394;DHT22;18853;45.426;9.206;2023-07-31T12:56:34;34.10;46.30
32394;DHT22;18853;45.426;9.206;2023-07-31T12:58:59;34.20;45.40
32394;DHT22;18853;45.426;9.206;2023-07-31T13:01:25;34.20;45.70
32394;DHT22;18853;45.426;9.206;2023-07-31T13:03:51;34.30;46.10
32394;DHT22;18853;45.426;9.206;2023-07-31T13:06:16;34.40;46.10
32394;DHT22;18853;45.426;9.206;2023-07-31T13:08:42;34.40;45.60
32394;DHT22;18853;45.426;9.206;2023-07-31T13:11:08;34.40;45.20
32394;DHT22;18853;45.426;9.206;2023-07-31T13:13:33;34.40;45.00
32394;DHT22;18853;45.426;9.206;2023-07-31T13:15:59;34.50;45.10
32394;DHT22;18853;45.426;9.206;2023-07-31T13:18:24;34.60;45.10
32394;DHT22;18853;45.426;9.206;2023-07-31T13:20:50;34.60;44.90
32394;DHT22;18853;45.426;9.206;2023-07-31T13:23:16;34.60;44.60
32394;DHT22;18853;45.426;9.206;2023-07-31T13:25:43;34.60;44.50
32394;DHT22;18853;45.426;9.206;2023-07-31T13:28:08;34.70;44.70
32394;DHT22;18853;45.426;9.206;2023-07-31T13:30:34;34.80;44.80
32394;DHT22;18853;45.426;9.206;2023-07-31T13:33:00;34.80;44.30
32394;DHT22;18853;45.426;9.206;2023-07-31T13:35:25;34.90;44.40
32394;DHT22;18853;45.426;9.206;2023-07-31T13:37:51;34.90;44.20
32394;DHT22;18853;45.426;9.206;2023-07-31T13:40:17;34.90;44.20
32394;DHT22;18853;45.426;9.206;2023-07-31T13:42:42;35.00;44.40
32394;DHT22;18853;45.426;9.206;2023-07-31T13:45:08;35.10;44.10
32394;DHT22;18853;45.426;9.206;2023-07-31T13:47:34;35.10;44.00
32394;DHT22;18853;45.426;9.206;2023-07-31T13:49:59;35.20;44.20
32394;DHT22;18853;45.426;9.206;2023-07-31T13:52:25;35.10;43.20
32394;DHT22;18853;45.426;9.206;2023-07-31T13:54:51;35.10;42.80
32394;DHT22;18853;45.426;9.206;2023-07-31T13:57:16;35.00;42.20
32394;DHT22;18853;45.426;9.206;2023-07-31T13:59:42;35.00;42.90
32394;DHT22;18853;45.426;9.206;2023-07-31T14:02:08;35.10;43.10
32394;DHT22;18853;45.426;9.206;2023-07-31T14:04:33;35.10;43.40
32394;DHT22;18853;45.426;9.206;2023-07-31T14:06:59;35.30;43.40
32394;DHT22;18853;45.426;9.206;2023-07-31T14:09:25;35.40;42.90
32394;DHT22;18853;45.426;9.206;2023-07-31T14:11:52;35.50;42.90
32394;DHT22;18853;45.426;9.206;2023-07-31T14:14:17;35.50;43.00
32394;DHT22;18853;45.426;9.206;2023-07-31T14:16:44;35.60;42.40
32394;DHT22;18853;45.426;9.206;2023-07-31T14:19:10;35.60;42.60
32394;DHT22;18853;45.426;9.206;2023-07-31T14:21:36;35.60;42.00
32394;DHT22;18853;45.426;9.206;2023-07-31T14:24:01;35.60;42.30
32394;DHT22;18853;45.426;9.206;2023-07-31T14:26:27;35.60;42.10
32394;DHT22;18853;45.426;9.206;2023-07-31T14:28:53;35.70;42.50
32394;DHT22;18853;45.426;9.206;2023-07-31T14:31:18;35.70;42.20
32394;DHT22;18853;45.426;9.206;2023-07-31T14:33:44;35.70;41.30
32394;DHT22;18853;45.426;9.206;2023-07-31T14:36:10;35.70;41.20
32394;DHT22;18853;45.426;9.206;2023-07-31T14:38:37;35.80;41.00
32394;DHT22;18853;45.426;9.206;2023-07-31T14:41:02;35.90;41.30
32394;DHT22;18853;45.426;9.206;2023-07-31T14:43:28;35.90;41.10
32394;DHT22;18853;45.426;9.206;2023-07-31T14:45:54;35.90;41.20
32394;DHT22;18853;45.426;9.206;2023-07-31T14:48:23;36.00;40.60
32394;DHT22;18853;45.426;9.206;2023-07-31T14:50:49;36.20;40.70
32394;DHT22;18853;45.426;9.206;2023-07-31T14:53:14;36.20;40.80
32394;DHT22;18853;45.426;9.206;2023-07-31T14:55:40;36.20;40.50
32394;DHT22;18853;45.426;9.206;2023-07-31T14:58:05;36.10;40.00
32394;DHT22;18853;45.426;9.206;2023-07-31T15:00:31;36.10;40.40
32394;DHT22;18853;45.426;9.206;2023-07-31T15:02:57;36.20;40.60
32394;DHT22;18853;45.426;9.206;2023-07-31T15:05:22;36.40;40.40
32394;DHT22;18853;45.426;9.206;2023-07-31T15:07:48;36.50;39.90
32394;DHT22;18853;45.426;9.206;2023-07-31T15:10:14;36.70;39.80
32394;DHT22;18853;45.426;9.206;2023-07-31T15:12:41;36.60;38.90
32394;DHT22;18853;45.426;9.206;2023-07-31T15:15:07;36.70;38.90
32394;DHT22;18853;45.426;9.206;2023-07-31T15:17:33;36.60;38.20
32394;DHT22;18853;45.426;9.206;2023-07-31T15:20:00;36.50;38.60
32394;DHT22;18853;45.426;9.206;2023-07-31T15:22:26;36.60;38.40
32394;DHT22;18853;45.426;9.206;2023-07-31T15:24:51;36.70;39.00
32394;DHT22;18853;45.426;9.206;2023-07-31T15:27:17;36.70;38.80
32394;DHT22;18853;45.426;9.206;2023-07-31T15:29:43;36.70;38.60
32394;DHT22;18853;45.426;9.206;2023-07-31T15:32:08;36.70;38.30
32394;DHT22;18853;45.426;9.206;2023-07-31T15:34:34;36.80;38.00
32394;DHT22;18853;45.426;9.206;2023-07-31T15:37:00;36.80;37.30